Subn MD Fac, Maryland
Current Conditions -  °F | °C
As of 9:35 AM on Wednesday 22 Oct 2014 (Local Time) from KGAI Reporting Station
Overcast Overcast  
Wind Chill: 52°   Ceiling: 2800
Heat Index: 52°   Visibility: 10mi
Dew Point: 48°   Wind: 6mph
Humidity: 88%   Direction: 340°NNW
Pressure: 29.97"   Gusts: NA
Location:  39.0876°N, 77.0578°W
Report Text: KGAI 221335Z 34005KT 10SM BKN028 BKN034 OVC046 11/09 A2997 RMK AO1
Loading
Personal Weather Stations






























Interactive Weather Map
Tropical Storm Tracking
New forecast layout! Learn more

10-Day Weather Forecast

Advertisements
Track Severe Weather on mobile